sensor_id;sensor_type;location;lat;lon;timestamp;P1;durP1;ratioP1;P2;durP2;ratioP2
78824;SDS011;68176;45.554;10.220;2023-07-28T00:03:50;3.65;;;1.65;;
78824;SDS011;68176;45.554;10.220;2023-07-28T00:06:16;1.20;;;0.20;;
78824;SDS011;68176;45.554;10.220;2023-07-28T00:12:37;3.25;;;1.00;;
78824;SDS011;68176;45.554;10.220;2023-07-28T00:44:10;2.10;;;0.65;;
78824;SDS011;68176;45.554;10.220;2023-07-28T00:50:52;1.30;;;0.63;;
78824;SDS011;68176;45.554;10.220;2023-07-28T00:59:57;1.70;;;0.77;;
78824;SDS011;68176;45.554;10.220;2023-07-28T01:29:29;2.13;;;0.85;;
78824;SDS011;68176;45.554;10.220;2023-07-28T01:51:59;2.97;;;1.05;;
78824;SDS011;68176;45.554;10.220;2023-07-28T02:11:22;2.50;;;0.88;;
78824;SDS011;68176;45.554;10.220;2023-07-28T02:48:57;3.10;;;1.25;;
78824;SDS011;68176;45.554;10.220;2023-07-28T02:51:22;2.45;;;0.98;;
78824;SDS011;68176;45.554;10.220;2023-07-28T02:53:48;1.50;;;0.60;;
78824;SDS011;68176;45.554;10.220;2023-07-28T02:56:37;2.22;;;0.85;;
78824;SDS011;68176;45.554;10.220;2023-07-28T02:59:16;1.93;;;0.87;;
78824;SDS011;68176;45.554;10.220;2023-07-28T03:02:49;1.80;;;0.85;;
78824;SDS011;68176;45.554;10.220;2023-07-28T03:05:59;2.33;;;1.05;;
78824;SDS011;68176;45.554;10.220;2023-07-28T03:09:16;1.95;;;0.75;;
78824;SDS011;68176;45.554;10.220;2023-07-28T03:11:52;3.45;;;0.95;;
78824;SDS011;68176;45.554;10.220;2023-07-28T03:15:13;1.80;;;0.95;;
78824;SDS011;68176;45.554;10.220;2023-07-28T03:31:05;1.88;;;0.65;;
78824;SDS011;68176;45.554;10.220;2023-07-28T03:33:36;2.53;;;0.93;;
78824;SDS011;68176;45.554;10.220;2023-07-28T03:46:19;1.75;;;0.82;;
78824;SDS011;68176;45.554;10.220;2023-07-28T04:17:05;2.38;;;1.02;;
78824;SDS011;68176;45.554;10.220;2023-07-28T04:19:32;1.90;;;0.75;;
78824;SDS011;68176;45.554;10.220;2023-07-28T04:48:54;2.47;;;1.05;;
78824;SDS011;68176;45.554;10.220;2023-07-28T04:58:44;7.30;;;0.90;;
78824;SDS011;68176;45.554;10.220;2023-07-28T06:10:21;2.78;;;0.90;;
78824;SDS011;68176;45.554;10.220;2023-07-28T06:15:44;1.17;;;0.40;;
78824;SDS011;68176;45.554;10.220;2023-07-28T06:18:53;2.47;;;1.03;;
78824;SDS011;68176;45.554;10.220;2023-07-28T07:11:26;2.08;;;1.00;;
78824;SDS011;68176;45.554;10.220;2023-07-28T07:20:06;5.10;;;1.42;;
78824;SDS011;68176;45.554;10.220;2023-07-28T08:10:32;3.80;;;1.08;;
78824;SDS011;68176;45.554;10.220;2023-07-28T08:22:06;3.43;;;0.87;;
78824;SDS011;68176;45.554;10.220;2023-07-28T08:34:04;2.13;;;0.60;;
78824;SDS011;68176;45.554;10.220;2023-07-28T08:49:41;2.35;;;0.93;;
78824;SDS011;68176;45.554;10.220;2023-07-28T08:54:34;5.85;;;0.93;;
78824;SDS011;68176;45.554;10.220;2023-07-28T09:14:42;7.55;;;1.63;;
78824;SDS011;68176;45.554;10.220;2023-07-28T09:19:50;4.20;;;1.90;;
78824;SDS011;68176;45.554;10.220;2023-07-28T09:22:17;5.10;;;2.17;;
78824;SDS011;68176;45.554;10.220;2023-07-28T09:27:18;5.63;;;2.65;;
78824;SDS011;68176;45.554;10.220;2023-07-28T09:29:55;4.95;;;1.75;;
78824;SDS011;68176;45.554;10.220;2023-07-28T09:32:30;3.63;;;2.03;;
78824;SDS011;68176;45.554;10.220;2023-07-28T09:35:14;7.38;;;2.33;;
78824;SDS011;68176;45.554;10.220;2023-07-28T09:37:40;4.38;;;1.85;;
78824;SDS011;68176;45.554;10.220;2023-07-28T09:42:40;3.30;;;1.85;;
78824;SDS011;68176;45.554;10.220;2023-07-28T09:45:12;7.43;;;1.93;;
78824;SDS011;68176;45.554;10.220;2023-07-28T09:47:37;12.40;;;1.70;;
78824;SDS011;68176;45.554;10.220;2023-07-28T09:50:05;3.67;;;1.80;;
78824;SDS011;68176;45.554;10.220;2023-07-28T09:52:34;5.97;;;2.92;;
78824;SDS011;68176;45.554;10.220;2023-07-28T09:55:05;6.45;;;2.90;;
78824;SDS011;68176;45.554;10.220;2023-07-28T09:57:38;5.60;;;2.60;;
78824;SDS011;68176;45.554;10.220;2023-07-28T10:02:34;9.43;;;2.45;;
78824;SDS011;68176;45.554;10.220;2023-07-28T10:05:05;6.85;;;2.40;;
78824;SDS011;68176;45.554;10.220;2023-07-28T10:07:34;5.00;;;2.78;;
78824;SDS011;68176;45.554;10.220;2023-07-28T10:10:07;12.63;;;3.45;;
78824;SDS011;68176;45.554;10.220;2023-07-28T10:15:17;4.63;;;2.17;;
78824;SDS011;68176;45.554;10.220;2023-07-28T10:23:06;5.00;;;2.35;;
78824;SDS011;68176;45.554;10.220;2023-07-28T10:25:38;6.45;;;2.13;;
78824;SDS011;68176;45.554;10.220;2023-07-28T10:30:36;3.55;;;1.70;;
78824;SDS011;68176;45.554;10.220;2023-07-28T10:33:29;4.43;;;1.80;;
78824;SDS011;68176;45.554;10.220;2023-07-28T10:36:11;5.93;;;2.22;;
78824;SDS011;68176;45.554;10.220;2023-07-28T10:38:42;5.85;;;2.95;;
78824;SDS011;68176;45.554;10.220;2023-07-28T10:43:38;3.00;;;1.60;;
78824;SDS011;68176;45.554;10.220;2023-07-28T10:46:10;7.20;;;2.88;;
78824;SDS011;68176;45.554;10.220;2023-07-28T10:51:06;3.90;;;2.00;;
78824;SDS011;68176;45.554;10.220;2023-07-28T10:53:36;8.30;;;2.38;;
78824;SDS011;68176;45.554;10.220;2023-07-28T10:56:06;10.27;;;3.55;;
78824;SDS011;68176;45.554;10.220;2023-07-28T10:58:36;10.50;;;3.42;;
78824;SDS011;68176;45.554;10.220;2023-07-28T11:01:06;10.52;;;3.72;;
78824;SDS011;68176;45.554;10.220;2023-07-28T11:03:36;10.52;;;2.67;;
78824;SDS011;68176;45.554;10.220;2023-07-28T11:06:06;9.65;;;3.08;;
78824;SDS011;68176;45.554;10.220;2023-07-28T11:08:36;7.45;;;2.72;;
78824;SDS011;68176;45.554;10.220;2023-07-28T11:11:06;9.07;;;2.08;;
78824;SDS011;68176;45.554;10.220;2023-07-28T11:13:39;2.10;;;1.10;;
78824;SDS011;68176;45.554;10.220;2023-07-28T11:16:07;6.97;;;3.45;;
78824;SDS011;68176;45.554;10.220;2023-07-28T11:18:36;8.13;;;3.40;;
78824;SDS011;68176;45.554;10.220;2023-07-28T11:21:06;11.18;;;3.58;;
78824;SDS011;68176;45.554;10.220;2023-07-28T11:23:36;7.82;;;2.83;;
78824;SDS011;68176;45.554;10.220;2023-07-28T11:26:06;5.38;;;2.38;;
78824;SDS011;68176;45.554;10.220;2023-07-28T11:28:39;3.45;;;2.15;;
78824;SDS011;68176;45.554;10.220;2023-07-28T11:31:08;12.07;;;2.85;;
78824;SDS011;68176;45.554;10.220;2023-07-28T11:33:36;9.07;;;4.47;;
78824;SDS011;68176;45.554;10.220;2023-07-28T11:36:32;8.47;;;2.27;;
78824;SDS011;68176;45.554;10.220;2023-07-28T11:41:26;3.42;;;2.38;;
78824;SDS011;68176;45.554;10.220;2023-07-28T11:43:56;4.35;;;2.60;;
78824;SDS011;68176;45.554;10.220;2023-07-28T11:46:36;7.72;;;2.17;;
78824;SDS011;68176;45.554;10.220;2023-07-28T11:49:18;4.28;;;2.13;;
78824;SDS011;68176;45.554;10.220;2023-07-28T11:51:48;4.45;;;2.67;;
78824;SDS011;68176;45.554;10.220;2023-07-28T11:54:15;4.10;;;1.30;;
78824;SDS011;68176;45.554;10.220;2023-07-28T11:56:45;3.70;;;0.80;;
78824;SDS011;68176;45.554;10.220;2023-07-28T11:59:11;6.90;;;1.85;;
78824;SDS011;68176;45.554;10.220;2023-07-28T12:01:51;8.32;;;2.55;;
78824;SDS011;68176;45.554;10.220;2023-07-28T12:32:46;2.40;;;1.30;;
78824;SDS011;68176;45.554;10.220;2023-07-28T12:35:12;4.35;;;2.45;;
78824;SDS011;68176;45.554;10.220;2023-07-28T12:37:42;6.05;;;2.33;;
78824;SDS011;68176;45.554;10.220;2023-07-28T12:40:12;5.00;;;2.55;;
78824;SDS011;68176;45.554;10.220;2023-07-28T12:42:42;7.05;;;2.92;;
78824;SDS011;68176;45.554;10.220;2023-07-28T12:45:12;5.95;;;2.28;;
78824;SDS011;68176;45.554;10.220;2023-07-28T12:47:42;8.65;;;2.95;;
78824;SDS011;68176;45.554;10.220;2023-07-28T12:50:12;4.93;;;2.60;;
78824;SDS011;68176;45.554;10.220;2023-07-28T12:52:42;5.20;;;2.53;;
78824;SDS011;68176;45.554;10.220;2023-07-28T12:55:24;5.13;;;2.40;;
78824;SDS011;68176;45.554;10.220;2023-07-28T12:58:08;5.60;;;1.75;;
78824;SDS011;68176;45.554;10.220;2023-07-28T13:00:34;5.40;;;2.00;;
78824;SDS011;68176;45.554;10.220;2023-07-28T13:02:59;2.85;;;2.00;;
78824;SDS011;68176;45.554;10.220;2023-07-28T13:05:31;3.85;;;1.75;;
78824;SDS011;68176;45.554;10.220;2023-07-28T13:07:59;6.60;;;2.03;;
78824;SDS011;68176;45.554;10.220;2023-07-28T13:10:29;6.72;;;2.50;;
78824;SDS011;68176;45.554;10.220;2023-07-28T13:12:59;7.90;;;2.60;;
78824;SDS011;68176;45.554;10.220;2023-07-28T13:15:29;4.47;;;2.97;;
78824;SDS011;68176;45.554;10.220;2023-07-28T13:18:00;6.28;;;2.72;;
78824;SDS011;68176;45.554;10.220;2023-07-28T13:20:30;4.10;;;2.15;;
78824;SDS011;68176;45.554;10.220;2023-07-28T13:22:59;3.10;;;1.60;;
78824;SDS011;68176;45.554;10.220;2023-07-28T13:25:29;3.85;;;1.60;;
78824;SDS011;68176;45.554;10.220;2023-07-28T13:27:59;4.82;;;2.28;;
78824;SDS011;68176;45.554;10.220;2023-07-28T13:30:29;8.90;;;2.03;;
78824;SDS011;68176;45.554;10.220;2023-07-28T13:33:01;4.90;;;1.85;;
78824;SDS011;68176;45.554;10.220;2023-07-28T13:46:10;4.63;;;2.47;;
78824;SDS011;68176;45.554;10.220;2023-07-28T13:48:38;22.60;;;1.40;;
78824;SDS011;68176;45.554;10.220;2023-07-28T13:51:29;4.07;;;1.57;;
78824;SDS011;68176;45.554;10.220;2023-07-28T13:54:25;6.63;;;1.33;;
78824;SDS011;68176;45.554;10.220;2023-07-28T14:12:24;2.10;;;1.23;;
78824;SDS011;68176;45.554;10.220;2023-07-28T14:14:50;2.50;;;1.10;;
78824;SDS011;68176;45.554;10.220;2023-07-28T14:17:18;9.65;;;2.28;;
78824;SDS011;68176;45.554;10.220;2023-07-28T14:19:51;6.75;;;1.40;;
78824;SDS011;68176;45.554;10.220;2023-07-28T14:22:18;4.97;;;1.83;;
78824;SDS011;68176;45.554;10.220;2023-07-28T14:24:48;4.13;;;1.67;;
78824;SDS011;68176;45.554;10.220;2023-07-28T14:27:18;7.55;;;2.50;;
78824;SDS011;68176;45.554;10.220;2023-07-28T14:29:48;6.43;;;2.25;;
78824;SDS011;68176;45.554;10.220;2023-07-28T14:32:18;6.43;;;2.40;;
78824;SDS011;68176;45.554;10.220;2023-07-28T14:34:48;8.05;;;2.35;;
78824;SDS011;68176;45.554;10.220;2023-07-28T14:37:18;4.32;;;2.28;;
78824;SDS011;68176;45.554;10.220;2023-07-28T14:39:51;6.38;;;2.55;;
78824;SDS011;68176;45.554;10.220;2023-07-28T17:22:42;7.87;;;1.83;;
78824;SDS011;68176;45.554;10.220;2023-07-28T17:25:13;4.95;;;1.50;;
78824;SDS011;68176;45.554;10.220;2023-07-28T17:34:05;5.80;;;1.90;;
78824;SDS011;68176;45.554;10.220;2023-07-28T17:36:36;8.35;;;2.38;;
78824;SDS011;68176;45.554;10.220;2023-07-28T17:39:04;2.10;;;1.30;;
78824;SDS011;68176;45.554;10.220;2023-07-28T17:41:30;7.68;;;2.22;;
78824;SDS011;68176;45.554;10.220;2023-07-28T17:44:00;9.50;;;2.25;;
78824;SDS011;68176;45.554;10.220;2023-07-28T17:46:30;7.43;;;2.72;;
78824;SDS011;68176;45.554;10.220;2023-07-28T17:49:00;11.05;;;3.03;;
78824;SDS011;68176;45.554;10.220;2023-07-28T17:51:42;10.05;;;2.58;;
78824;SDS011;68176;45.554;10.220;2023-07-28T17:54:10;10.52;;;3.13;;
78824;SDS011;68176;45.554;10.220;2023-07-28T17:56:36;1.70;;;0.90;;
78824;SDS011;68176;45.554;10.220;2023-07-28T17:59:07;5.40;;;2.28;;
78824;SDS011;68176;45.554;10.220;2023-07-28T18:02:19;2.97;;;1.60;;
78824;SDS011;68176;45.554;10.220;2023-07-28T18:05:08;12.45;;;2.83;;
78824;SDS011;68176;45.554;10.220;2023-07-28T18:10:39;8.15;;;2.58;;
78824;SDS011;68176;45.554;10.220;2023-07-28T18:31:47;5.15;;;2.42;;
78824;SDS011;68176;45.554;10.220;2023-07-28T18:34:13;5.40;;;2.03;;
78824;SDS011;68176;45.554;10.220;2023-07-28T18:36:38;3.85;;;1.75;;
78824;SDS011;68176;45.554;10.220;2023-07-28T18:39:08;7.53;;;3.03;;
78824;SDS011;68176;45.554;10.220;2023-07-28T18:41:38;8.73;;;3.53;;
78824;SDS011;68176;45.554;10.220;2023-07-28T19:00:48;2.75;;;1.77;;
78824;SDS011;68176;45.554;10.220;2023-07-28T20:55:52;4.30;;;2.00;;
78824;SDS011;68176;45.554;10.220;2023-07-28T22:25:27;3.30;;;1.75;;
78824;SDS011;68176;45.554;10.220;2023-07-28T23:01:59;3.83;;;1.75;;
78824;SDS011;68176;45.554;10.220;2023-07-28T23:51:01;5.30;;;1.90;;
